Check out our new PWSWeather beta!
PWSweather.com
Personal Weather Stations
Station Observations

SkegnessGB

Lat: 53.147585, Lon: 0.345774

Elevation: 18

Station Type: Fine Offset WH3080

http://www.skegnessweather.info/

High Low Average
Temperature 43.0°F6.1°C 36.9°F2.7°C 39.6°F4.2°C
Dew Point 37.4°F3.0°C 28.3°F-2.1°C 32.8°F0.4°C
Winds 22.2 mph 35.7 kmh 4.2 mph 6.8 kmh 10.0 mph SSW16.1 kmh SSW
Wind Gusts 23.4 mph37.7 kmh 4.9 mph7.9 kmh 12.0 mph19.3 kmh
Humidity 84% 67% 77%
Pressure 29.20 in988.8 mb 28.85 in977.0 mb -
Precipitation 0.05 in1.3 mm - -
Hour Temp Dew Point Humidity Winds Wind Gusts Pressure Precip Precip Rate Daily Precip Total
12:00 AM 40.3°F4.6°C 34.9°F1.6°C 81% 6.7 mph SW10.8 kmh SW 8.4 mph13.5 kmh 28.85 in977.0 mb 0.00 in0.0 mm 0.00 in0.0 mm 0.00 in0.0 mm
12:10 AM 40.3°F4.6°C 34.9°F1.6°C 81% 5.6 mph S9.0 kmh S 5.9 mph9.5 kmh 28.85 in977.0 mb 0.00 in0.0 mm 0.00 in0.0 mm 0.00 in0.0 mm
12:20 AM 40.3°F4.6°C 34.9°F1.6°C 81% 5.3 mph SW8.5 kmh SW 6.6 mph10.6 kmh 28.86 in977.3 mb 0.00 in0.0 mm 0.00 in0.0 mm 0.00 in0.0 mm
12:30 AM 40.3°F4.6°C 34.9°F1.6°C 81% 7.2 mph WSW11.6 kmh WSW 7.6 mph12.2 kmh 28.85 in977.0 mb 0.00 in0.0 mm 0.00 in0.0 mm 0.00 in0.0 mm
12:40 AM 40.3°F4.6°C 34.9°F1.6°C 81% 5.8 mph SSW9.3 kmh SSW 5.9 mph9.5 kmh 28.85 in977.0 mb 0.00 in0.0 mm 0.00 in0.0 mm 0.00 in0.0 mm
12:50 AM 40.3°F4.6°C 34.6°F1.4°C 80% 6.1 mph SSW9.8 kmh SSW 5.9 mph9.5 kmh 28.85 in977.0 mb 0.00 in0.0 mm 0.00 in0.0 mm 0.00 in0.0 mm
01:00 AM 40.1°F4.5°C 34.4°F1.3°C 80% 7.1 mph SSW11.4 kmh SSW 7.6 mph12.2 kmh 28.85 in977.0 mb 0.00 in0.0 mm 0.00 in0.0 mm 0.00 in0.0 mm
01:10 AM 39.9°F4.4°C 34.2°F1.2°C 80% 6.3 mph WNW10.1 kmh WNW 6.6 mph10.6 kmh 28.86 in977.3 mb 0.00 in0.0 mm 0.00 in0.0 mm 0.00 in0.0 mm
01:20 AM 39.7°F4.3°C 34.1°F1.2°C 80% 6.1 mph S9.8 kmh S 6.6 mph10.6 kmh 28.86 in977.3 mb 0.00 in0.0 mm 0.00 in0.0 mm 0.00 in0.0 mm
01:30 AM 39.4°F4.1°C 33.7°F0.9°C 80% 5.6 mph SW9.0 kmh SW 6.6 mph10.6 kmh 28.85 in977.0 mb 0.00 in0.0 mm 0.00 in0.0 mm 0.00 in0.0 mm
01:40 AM 39.4°F4.1°C 33.7°F0.9°C 80% 5.3 mph SW8.5 kmh SW 5.9 mph9.5 kmh 28.86 in977.3 mb 0.00 in0.0 mm 0.00 in0.0 mm 0.00 in0.0 mm
01:50 AM 39.2°F4.0°C 33.5°F0.8°C 80% 6.3 mph S10.1 kmh S 7.6 mph12.2 kmh 28.86 in977.3 mb 0.00 in0.0 mm 0.00 in0.0 mm 0.00 in0.0 mm
02:00 AM 39.2°F4.0°C 33.5°F0.8°C 80% 7.0 mph S11.3 kmh S 6.6 mph10.6 kmh 28.88 in978.0 mb 0.00 in0.0 mm 0.00 in0.0 mm 0.00 in0.0 mm
02:10 AM 38.8°F3.8°C 33.2°F0.7°C 80% 8.0 mph SW12.9 kmh SW 9.1 mph14.6 kmh 28.88 in978.0 mb 0.00 in0.0 mm 0.00 in0.0 mm 0.00 in0.0 mm
02:20 AM 38.5°F3.6°C 32.8°F0.4°C 80% 6.1 mph SSE9.8 kmh SSE 7.6 mph12.2 kmh 28.88 in978.0 mb 0.00 in0.0 mm 0.00 in0.0 mm 0.00 in0.0 mm
02:30 AM 38.3°F3.5°C 32.7°F0.4°C 80% 5.6 mph WSW9.0 kmh WSW 7.6 mph12.2 kmh 28.88 in978.0 mb 0.00 in0.0 mm 0.00 in0.0 mm 0.00 in0.0 mm
02:40 AM 38.1°F3.4°C 32.5°F0.3°C 80% 6.7 mph SW10.8 kmh SW 6.6 mph10.6 kmh 28.88 in978.0 mb 0.00 in0.0 mm 0.00 in0.0 mm 0.00 in0.0 mm
02:50 AM 38.1°F3.4°C 32.5°F0.3°C 80% 7.7 mph SW12.4 kmh SW 8.4 mph13.5 kmh 28.89 in978.3 mb 0.00 in0.0 mm 0.00 in0.0 mm 0.00 in0.0 mm
03:00 AM 38.5°F3.6°C 33.2°F0.7°C 81% 11.1 mph SW17.9 kmh SW 11.8 mph19.0 kmh 28.89 in978.3 mb 0.00 in0.0 mm 0.00 in0.0 mm 0.00 in0.0 mm
03:10 AM 38.8°F3.8°C 33.5°F0.8°C 81% 9.6 mph WSW15.4 kmh WSW 7.6 mph12.2 kmh 28.89 in978.3 mb 0.00 in0.0 mm 0.00 in0.0 mm 0.00 in0.0 mm
03:20 AM 38.7°F3.7°C 33.3°F0.7°C 81% 7.7 mph SSW12.4 kmh SSW 9.1 mph14.6 kmh 28.89 in978.3 mb 0.00 in0.0 mm 0.00 in0.0 mm 0.00 in0.0 mm
03:30 AM 38.7°F3.7°C 33.3°F0.7°C 81% 10.0 mph SW16.1 kmh SW 12.5 mph20.1 kmh 28.90 in978.7 mb 0.00 in0.0 mm 0.00 in0.0 mm 0.00 in0.0 mm
03:40 AM 38.8°F3.8°C 33.5°F0.8°C 81% 8.2 mph SW13.2 kmh SW 12.5 mph20.1 kmh 28.91 in979.0 mb 0.00 in0.0 mm 0.00 in0.0 mm 0.00 in0.0 mm
03:50 AM 38.8°F3.8°C 33.5°F0.8°C 81% 9.2 mph SW14.8 kmh SW 9.1 mph14.6 kmh 28.91 in979.0 mb 0.00 in0.0 mm 0.00 in0.0 mm 0.00 in0.0 mm
04:00 AM 38.8°F3.8°C 33.5°F0.8°C 81% 9.8 mph SW15.8 kmh SW 10.1 mph16.3 kmh 28.90 in978.7 mb 0.00 in0.0 mm 0.00 in0.0 mm 0.00 in0.0 mm
04:10 AM 38.7°F3.7°C 33.6°F0.9°C 82% 9.5 mph WSW15.3 kmh WSW 14.3 mph23.0 kmh 28.90 in978.7 mb 0.00 in0.0 mm 0.00 in0.0 mm 0.00 in0.0 mm
04:20 AM 38.3°F3.5°C 33.3°F0.7°C 82% 9.8 mph SW15.8 kmh SW 13.3 mph21.4 kmh 28.91 in979.0 mb 0.00 in0.0 mm 0.00 in0.0 mm 0.00 in0.0 mm
04:30 AM 38.1°F3.4°C 33.1°F0.6°C 82% 7.1 mph NW11.4 kmh NW 10.8 mph17.4 kmh 28.91 in979.0 mb 0.00 in0.0 mm 0.00 in0.0 mm 0.00 in0.0 mm
04:40 AM 37.9°F3.3°C 32.9°F0.5°C 82% 8.2 mph SSW13.2 kmh SSW 8.4 mph13.5 kmh 28.92 in979.3 mb 0.00 in0.0 mm 0.00 in0.0 mm 0.00 in0.0 mm
04:50 AM 37.9°F3.3°C 33.2°F0.7°C 83% 8.6 mph WSW13.8 kmh WSW 11.8 mph19.0 kmh 28.92 in979.3 mb 0.00 in0.0 mm 0.00 in0.0 mm 0.00 in0.0 mm
05:00 AM 38.1°F3.4°C 33.4°F0.8°C 83% 8.3 mph W13.4 kmh W 8.4 mph13.5 kmh 28.93 in979.7 mb 0.00 in0.0 mm 0.00 in0.0 mm 0.00 in0.0 mm
05:10 AM 38.3°F3.5°C 33.6°F0.9°C 83% 7.3 mph W11.7 kmh W 7.6 mph12.2 kmh 28.93 in979.7 mb 0.00 in0.0 mm 0.00 in0.0 mm 0.00 in0.0 mm
05:20 AM 38.3°F3.5°C 33.6°F0.9°C 83% 7.8 mph S12.6 kmh S 8.4 mph13.5 kmh 28.93 in979.7 mb 0.00 in0.0 mm 0.00 in0.0 mm 0.00 in0.0 mm
05:30 AM 38.3°F3.5°C 33.6°F0.9°C 83% 9.0 mph SW14.5 kmh SW 9.1 mph14.6 kmh 28.94 in980.0 mb 0.00 in0.0 mm 0.00 in0.0 mm 0.00 in0.0 mm
05:40 AM 38.3°F3.5°C 33.6°F0.9°C 83% 8.3 mph SW13.4 kmh SW 10.1 mph16.3 kmh 28.95 in980.4 mb 0.00 in0.0 mm 0.00 in0.0 mm 0.00 in0.0 mm
05:50 AM 38.3°F3.5°C 33.6°F0.9°C 83% 9.7 mph SW15.6 kmh SW 10.1 mph16.3 kmh 28.95 in980.4 mb 0.00 in0.0 mm 0.00 in0.0 mm 0.00 in0.0 mm
06:00 AM 38.3°F3.5°C 33.3°F0.7°C 82% 10.1 mph SW16.3 kmh SW 10.1 mph16.3 kmh 28.94 in980.0 mb 0.00 in0.0 mm 0.00 in0.0 mm 0.00 in0.0 mm
06:10 AM 38.5°F3.6°C 33.5°F0.8°C 82% 10.3 mph S16.6 kmh S 13.3 mph21.4 kmh 28.95 in980.4 mb 0.00 in0.0 mm 0.00 in0.0 mm 0.00 in0.0 mm
06:20 AM 38.7°F3.7°C 33.3°F0.7°C 81% 11.1 mph SE17.9 kmh SE 14.3 mph23.0 kmh 28.95 in980.4 mb 0.00 in0.0 mm 0.00 in0.0 mm 0.00 in0.0 mm
06:30 AM 38.7°F3.7°C 33.0°F0.6°C 80% 10.2 mph WSW16.4 kmh WSW 14.3 mph23.0 kmh 28.96 in980.7 mb 0.00 in0.0 mm 0.00 in0.0 mm 0.00 in0.0 mm
06:40 AM 38.5°F3.6°C 32.8°F0.4°C 80% 9.3 mph SSW15.0 kmh SSW 12.5 mph20.1 kmh 28.96 in980.7 mb 0.00 in0.0 mm 0.00 in0.0 mm 0.00 in0.0 mm
06:50 AM 38.5°F3.6°C 32.8°F0.4°C 80% 10.8 mph SW17.4 kmh SW 13.3 mph21.4 kmh 28.97 in981.0 mb 0.00 in0.0 mm 0.00 in0.0 mm 0.00 in0.0 mm
07:00 AM 38.3°F3.5°C 32.4°F0.2°C 79% 12.1 mph S19.5 kmh S 13.3 mph21.4 kmh 28.97 in981.0 mb 0.00 in0.0 mm 0.00 in0.0 mm 0.00 in0.0 mm
07:10 AM 38.3°F3.5°C 32.4°F0.2°C 79% 10.3 mph WSW16.6 kmh WSW 9.1 mph14.6 kmh 28.98 in981.4 mb 0.00 in0.0 mm 0.00 in0.0 mm 0.00 in0.0 mm
07:20 AM 38.1°F3.4°C 31.9°F-0.1°C 78% 10.8 mph SSW17.4 kmh SSW 10.8 mph17.4 kmh 28.98 in981.4 mb 0.00 in0.0 mm 0.00 in0.0 mm 0.00 in0.0 mm
07:30 AM 38.1°F3.4°C 31.9°F-0.1°C 78% 10.2 mph SSW16.4 kmh SSW 13.3 mph21.4 kmh 28.99 in981.7 mb 0.00 in0.0 mm 0.00 in0.0 mm 0.00 in0.0 mm
07:40 AM 38.1°F3.4°C 31.9°F-0.1°C 78% 10.5 mph SW16.9 kmh SW 12.5 mph20.1 kmh 28.99 in981.7 mb 0.00 in0.0 mm 0.00 in0.0 mm 0.00 in0.0 mm
07:50 AM 38.1°F3.4°C 31.5°F-0.3°C 77% 11.4 mph WSW18.3 kmh WSW 14.3 mph23.0 kmh 29.00 in982.1 mb 0.00 in0.0 mm 0.00 in0.0 mm 0.00 in0.0 mm
08:00 AM 38.1°F3.4°C 31.5°F-0.3°C 77% 10.0 mph SSW16.1 kmh SSW 13.3 mph21.4 kmh 29.00 in982.1 mb 0.01 in0.3 mm 0.01 in0.3 mm 0.01 in0.3 mm
08:10 AM 38.1°F3.4°C 31.5°F-0.3°C 77% 10.1 mph S16.3 kmh S 12.5 mph20.1 kmh 29.00 in982.1 mb 0.01 in0.3 mm 0.00 in0.0 mm 0.01 in0.3 mm
08:20 AM 38.1°F3.4°C 31.2°F-0.4°C 76% 9.2 mph SSW14.8 kmh SSW 8.4 mph13.5 kmh 29.01 in982.4 mb 0.01 in0.3 mm 0.00 in0.0 mm 0.01 in0.3 mm
08:30 AM 37.9°F3.3°C 31.0°F-0.6°C 76% 8.0 mph SW12.9 kmh SW 9.1 mph14.6 kmh 29.02 in982.7 mb 0.01 in0.3 mm 0.00 in0.0 mm 0.01 in0.3 mm
08:40 AM 37.8°F3.2°C 30.9°F-0.6°C 76% 5.4 mph SW8.7 kmh SW 6.6 mph10.6 kmh 29.02 in982.7 mb 0.01 in0.3 mm 0.00 in0.0 mm 0.01 in0.3 mm
08:50 AM 37.9°F3.3°C 31.4°F-0.3°C 77% 7.1 mph SSW11.4 kmh SSW 9.1 mph14.6 kmh 29.01 in982.4 mb 0.01 in0.3 mm 0.00 in0.0 mm 0.01 in0.3 mm
09:00 AM 37.9°F3.3°C 31.4°F-0.3°C 77% 6.5 mph SW10.5 kmh SW 6.6 mph10.6 kmh 29.00 in982.1 mb 0.00 in0.0 mm 0.00 in0.0 mm 0.01 in0.3 mm
09:10 AM 38.3°F3.5°C 31.7°F-0.2°C 77% 6.0 mph SW9.7 kmh SW 6.6 mph10.6 kmh 29.02 in982.7 mb 0.00 in0.0 mm 0.00 in0.0 mm 0.01 in0.3 mm
09:20 AM 38.5°F3.6°C 31.6°F-0.2°C 76% 9.4 mph SW15.1 kmh SW 10.1 mph16.3 kmh 29.02 in982.7 mb 0.00 in0.0 mm 0.00 in0.0 mm 0.01 in0.3 mm
09:30 AM 38.5°F3.6°C 31.6°F-0.2°C 76% 8.1 mph S13.0 kmh S 8.4 mph13.5 kmh 29.02 in982.7 mb 0.00 in0.0 mm 0.00 in0.0 mm 0.01 in0.3 mm
09:40 AM 38.7°F3.7°C 31.7°F-0.2°C 76% 8.7 mph SW14.0 kmh SW 9.1 mph14.6 kmh 29.02 in982.7 mb 0.00 in0.0 mm 0.00 in0.0 mm 0.01 in0.3 mm
09:50 AM 39.2°F4.0°C 32.3°F0.2°C 76% 9.0 mph S14.5 kmh S 12.5 mph20.1 kmh 29.02 in982.7 mb 0.00 in0.0 mm 0.00 in0.0 mm 0.01 in0.3 mm
10:00 AM 39.6°F4.2°C 32.6°F0.3°C 76% 12.2 mph SW19.6 kmh SW 12.5 mph20.1 kmh 29.02 in982.7 mb 0.00 in0.0 mm 0.00 in0.0 mm 0.01 in0.3 mm
10:10 AM 40.1°F4.5°C 32.5°F0.3°C 74% 13.1 mph SW21.1 kmh SW 17.5 mph28.2 kmh 29.02 in982.7 mb 0.00 in0.0 mm 0.00 in0.0 mm 0.01 in0.3 mm
10:20 AM 40.5°F4.7°C 32.8°F0.4°C 74% 12.0 mph SSW19.3 kmh SSW 14.3 mph23.0 kmh 29.03 in983.1 mb 0.00 in0.0 mm 0.00 in0.0 mm 0.01 in0.3 mm
10:30 AM 40.6°F4.8°C 32.7°F0.4°C 73% 12.7 mph SSW20.4 kmh SSW 13.3 mph21.4 kmh 29.03 in983.1 mb 0.00 in0.0 mm 0.00 in0.0 mm 0.01 in0.3 mm
10:40 AM 41.0°F5.0°C 33.0°F0.6°C 73% 12.2 mph WSW19.6 kmh WSW 13.3 mph21.4 kmh 29.04 in983.4 mb 0.00 in0.0 mm 0.00 in0.0 mm 0.01 in0.3 mm
10:50 AM 41.2°F5.1°C 33.2°F0.7°C 73% 13.2 mph SSW21.2 kmh SSW 12.5 mph20.1 kmh 29.04 in983.4 mb 0.00 in0.0 mm 0.00 in0.0 mm 0.01 in0.3 mm
11:00 AM 41.2°F5.1°C 33.2°F0.7°C 73% 12.1 mph S19.5 kmh S 13.3 mph21.4 kmh 29.04 in983.4 mb 0.00 in0.0 mm 0.00 in0.0 mm 0.01 in0.3 mm
11:10 AM 41.4°F5.2°C 33.4°F0.8°C 73% 13.9 mph SE22.4 kmh SE 13.3 mph21.4 kmh 29.04 in983.4 mb 0.00 in0.0 mm 0.00 in0.0 mm 0.01 in0.3 mm
11:20 AM 41.5°F5.3°C 33.5°F0.8°C 73% 14.5 mph SW23.3 kmh SW 16.7 mph26.9 kmh 29.04 in983.4 mb 0.00 in0.0 mm 0.00 in0.0 mm 0.01 in0.3 mm
11:30 AM 41.5°F5.3°C 33.5°F0.8°C 73% 14.2 mph SSW22.9 kmh SSW 14.3 mph23.0 kmh 29.04 in983.4 mb 0.00 in0.0 mm 0.00 in0.0 mm 0.01 in0.3 mm
11:40 AM 41.7°F5.4°C 33.7°F0.9°C 73% 11.6 mph WSW18.7 kmh WSW 14.3 mph23.0 kmh 29.04 in983.4 mb 0.00 in0.0 mm 0.00 in0.0 mm 0.01 in0.3 mm
11:50 AM 41.9°F5.5°C 33.5°F0.8°C 72% 12.3 mph S19.8 kmh S 14.3 mph23.0 kmh 29.05 in983.7 mb 0.00 in0.0 mm 0.00 in0.0 mm 0.01 in0.3 mm
12:00 PM 41.9°F5.5°C 33.9°F1.1°C 73% 13.9 mph WSW22.4 kmh WSW 16.0 mph25.7 kmh 29.05 in983.7 mb 0.00 in0.0 mm 0.00 in0.0 mm 0.01 in0.3 mm
12:10 PM 42.3°F5.7°C 34.2°F1.2°C 73% 11.7 mph S18.8 kmh S 12.5 mph20.1 kmh 29.04 in983.4 mb 0.00 in0.0 mm 0.00 in0.0 mm 0.01 in0.3 mm
12:20 PM 42.6°F5.9°C 34.9°F1.6°C 74% 13.4 mph SSW21.6 kmh SSW 12.5 mph20.1 kmh 29.05 in983.7 mb 0.00 in0.0 mm 0.00 in0.0 mm 0.01 in0.3 mm
12:30 PM 42.8°F6.0°C 35.1°F1.7°C 74% 15.6 mph SW25.1 kmh SW 23.4 mph37.7 kmh 29.05 in983.7 mb 0.00 in0.0 mm 0.00 in0.0 mm 0.01 in0.3 mm
12:40 PM 43.0°F6.1°C 34.9°F1.6°C 73% 15.0 mph WSW24.1 kmh WSW 17.5 mph28.2 kmh 29.06 in984.1 mb 0.00 in0.0 mm 0.00 in0.0 mm 0.01 in0.3 mm
12:50 PM 42.4°F5.8°C 34.7°F1.5°C 74% 12.7 mph SW20.4 kmh SW 14.3 mph23.0 kmh 29.06 in984.1 mb 0.00 in0.0 mm 0.00 in0.0 mm 0.01 in0.3 mm
01:00 PM 41.4°F5.2°C 34.0°F1.1°C 75% 14.4 mph SW23.2 kmh SW 14.3 mph23.0 kmh 29.08 in984.8 mb 0.00 in0.0 mm 0.00 in0.0 mm 0.01 in0.3 mm
01:10 PM 40.6°F4.8°C 34.0°F1.1°C 77% 12.9 mph SW20.8 kmh SW 13.3 mph21.4 kmh 29.08 in984.8 mb 0.00 in0.0 mm 0.00 in0.0 mm 0.01 in0.3 mm
01:20 PM 41.2°F5.1°C 35.2°F1.8°C 79% 13.1 mph SW21.1 kmh SW 16.0 mph25.7 kmh 29.08 in984.8 mb 0.00 in0.0 mm 0.00 in0.0 mm 0.01 in0.3 mm
01:30 PM 41.7°F5.4°C 35.0°F1.7°C 77% 12.7 mph SSW20.4 kmh SSW 18.5 mph29.8 kmh 29.08 in984.8 mb 0.00 in0.0 mm 0.00 in0.0 mm 0.01 in0.3 mm
01:40 PM 42.4°F5.8°C 34.7°F1.5°C 74% 14.5 mph WSW23.3 kmh WSW 14.3 mph23.0 kmh 29.08 in984.8 mb 0.00 in0.0 mm 0.00 in0.0 mm 0.01 in0.3 mm
01:50 PM 42.8°F6.0°C 33.7°F0.9°C 70% 14.8 mph SW23.8 kmh SW 16.7 mph26.9 kmh 29.09 in985.1 mb 0.00 in0.0 mm 0.00 in0.0 mm 0.01 in0.3 mm
02:00 PM 42.8°F6.0°C 33.0°F0.6°C 68% 16.9 mph WSW27.2 kmh WSW 20.2 mph32.5 kmh 29.11 in985.8 mb 0.00 in0.0 mm 0.00 in0.0 mm 0.01 in0.3 mm
02:10 PM 42.3°F5.7°C 33.5°F0.8°C 71% 11.5 mph SW18.5 kmh SW 20.2 mph32.5 kmh 29.11 in985.8 mb 0.00 in0.0 mm 0.00 in0.0 mm 0.01 in0.3 mm
02:20 PM 41.2°F5.1°C 32.8°F0.4°C 72% 8.9 mph SW14.3 kmh SW 10.1 mph16.3 kmh 29.12 in986.1 mb 0.00 in0.0 mm 0.00 in0.0 mm 0.01 in0.3 mm
02:30 PM 41.4°F5.2°C 33.4°F0.8°C 73% 10.5 mph SSW16.9 kmh SSW 16.0 mph25.7 kmh 29.13 in986.5 mb 0.00 in0.0 mm 0.00 in0.0 mm 0.01 in0.3 mm
02:40 PM 41.5°F5.3°C 32.1°F0.1°C 69% 14.3 mph SW23.0 kmh SW 13.3 mph21.4 kmh 29.13 in986.5 mb 0.00 in0.0 mm 0.00 in0.0 mm 0.01 in0.3 mm
02:50 PM 41.5°F5.3°C 31.4°F-0.3°C 67% 12.5 mph S20.1 kmh S 14.3 mph23.0 kmh 29.14 in986.8 mb 0.00 in0.0 mm 0.00 in0.0 mm 0.01 in0.3 mm
03:00 PM 41.2°F5.1°C 31.4°F-0.3°C 68% 14.5 mph SW23.3 kmh SW 17.5 mph28.2 kmh 29.14 in986.8 mb 0.00 in0.0 mm 0.00 in0.0 mm 0.01 in0.3 mm
03:10 PM 40.8°F4.9°C 31.1°F-0.5°C 68% 14.7 mph SW23.7 kmh SW 17.5 mph28.2 kmh 29.16 in987.5 mb 0.00 in0.0 mm 0.00 in0.0 mm 0.01 in0.3 mm
03:20 PM 40.5°F4.7°C 30.7°F-0.7°C 68% 9.6 mph WSW15.4 kmh WSW 11.8 mph19.0 kmh 29.15 in987.1 mb 0.00 in0.0 mm 0.00 in0.0 mm 0.01 in0.3 mm
03:30 PM 40.3°F4.6°C 30.6°F-0.8°C 68% 8.9 mph SSW14.3 kmh SSW 12.5 mph20.1 kmh 29.16 in987.5 mb 0.00 in0.0 mm 0.00 in0.0 mm 0.01 in0.3 mm
03:40 PM 40.1°F4.5°C 30.4°F-0.9°C 68% 8.6 mph SW13.8 kmh SW 9.1 mph14.6 kmh 29.17 in987.8 mb 0.00 in0.0 mm 0.00 in0.0 mm 0.01 in0.3 mm
03:50 PM 39.7°F4.3°C 30.4°F-0.9°C 69% 7.3 mph SW11.7 kmh SW 8.4 mph13.5 kmh 29.17 in987.8 mb 0.00 in0.0 mm 0.00 in0.0 mm 0.01 in0.3 mm
04:00 PM 39.6°F4.2°C 30.2°F-1.0°C 69% 6.9 mph S11.1 kmh S 7.6 mph12.2 kmh 29.17 in987.8 mb 0.00 in0.0 mm 0.00 in0.0 mm 0.01 in0.3 mm
04:10 PM 39.2°F4.0°C 29.9°F-1.2°C 69% 6.4 mph SW10.3 kmh SW 9.1 mph14.6 kmh 29.17 in987.8 mb 0.00 in0.0 mm 0.00 in0.0 mm 0.01 in0.3 mm
04:20 PM 39.0°F3.9°C 29.7°F-1.3°C 69% 6.2 mph SSE10.0 kmh SSE 5.9 mph9.5 kmh 29.18 in988.1 mb 0.00 in0.0 mm 0.00 in0.0 mm 0.01 in0.3 mm
04:30 PM 38.8°F3.8°C 29.5°F-1.4°C 69% 6.2 mph SW10.0 kmh SW 8.4 mph13.5 kmh 29.19 in988.5 mb 0.00 in0.0 mm 0.00 in0.0 mm 0.01 in0.3 mm
04:40 PM 38.8°F3.8°C 29.2°F-1.6°C 68% 8.2 mph SW13.2 kmh SW 10.8 mph17.4 kmh 29.19 in988.5 mb 0.00 in0.0 mm 0.00 in0.0 mm 0.01 in0.3 mm
04:50 PM 38.5°F3.6°C 28.8°F-1.8°C 68% 6.1 mph SSW9.8 kmh SSW 5.9 mph9.5 kmh 29.20 in988.8 mb 0.00 in0.0 mm 0.00 in0.0 mm 0.01 in0.3 mm
05:00 PM 38.1°F3.4°C 28.8°F-1.8°C 69% 5.0 mph SW8.0 kmh SW 5.9 mph9.5 kmh 29.20 in988.8 mb 0.00 in0.0 mm 0.00 in0.0 mm 0.01 in0.3 mm
05:10 PM 37.6°F3.1°C 28.7°F-1.8°C 70% 4.2 mph SW6.8 kmh SW 4.9 mph7.9 kmh 29.19 in988.5 mb 0.00 in0.0 mm 0.00 in0.0 mm 0.01 in0.3 mm
05:20 PM 37.2°F2.9°C 28.3°F-2.1°C 70% 6.6 mph SSE10.6 kmh SSE 5.9 mph9.5 kmh 29.20 in988.8 mb 0.00 in0.0 mm 0.00 in0.0 mm 0.01 in0.3 mm
05:30 PM 36.9°F2.7°C 28.3°F-2.1°C 71% 5.0 mph SW8.0 kmh SW 5.9 mph9.5 kmh 29.19 in988.5 mb 0.00 in0.0 mm 0.00 in0.0 mm 0.01 in0.3 mm
05:40 PM 36.9°F2.7°C 28.7°F-1.8°C 72% 5.6 mph SW9.0 kmh SW 6.6 mph10.6 kmh 29.19 in988.5 mb 0.00 in0.0 mm 0.00 in0.0 mm 0.01 in0.3 mm
05:50 PM 37.0°F2.8°C 29.2°F-1.6°C 73% 7.3 mph S11.7 kmh S 7.6 mph12.2 kmh 29.20 in988.8 mb 0.00 in0.0 mm 0.00 in0.0 mm 0.01 in0.3 mm
06:00 PM 37.2°F2.9°C 29.4°F-1.4°C 73% 6.6 mph SW10.6 kmh SW 7.6 mph12.2 kmh 29.19 in988.5 mb 0.00 in0.0 mm 0.00 in0.0 mm 0.01 in0.3 mm
06:10 PM 37.2°F2.9°C 29.4°F-1.4°C 73% 6.3 mph SSW10.1 kmh SSW 8.4 mph13.5 kmh 29.18 in988.1 mb 0.00 in0.0 mm 0.00 in0.0 mm 0.01 in0.3 mm
06:20 PM 37.2°F2.9°C 29.7°F-1.3°C 74% 6.4 mph S10.3 kmh S 6.6 mph10.6 kmh 29.19 in988.5 mb 0.00 in0.0 mm 0.00 in0.0 mm 0.01 in0.3 mm
06:30 PM 37.4°F3.0°C 29.9°F-1.2°C 74% 6.4 mph S10.3 kmh S 7.6 mph12.2 kmh 29.18 in988.1 mb 0.00 in0.0 mm 0.00 in0.0 mm 0.01 in0.3 mm
06:40 PM 37.4°F3.0°C 29.9°F-1.2°C 74% 6.6 mph SW10.6 kmh SW 8.4 mph13.5 kmh 29.18 in988.1 mb 0.00 in0.0 mm 0.00 in0.0 mm 0.01 in0.3 mm
06:50 PM 37.2°F2.9°C 30.0°F-1.1°C 75% 6.6 mph W10.6 kmh W 6.6 mph10.6 kmh 29.18 in988.1 mb 0.00 in0.0 mm 0.00 in0.0 mm 0.01 in0.3 mm
07:00 PM 37.4°F3.0°C 30.2°F-1.0°C 75% 8.5 mph SSW13.7 kmh SSW 10.1 mph16.3 kmh 29.18 in988.1 mb 0.00 in0.0 mm 0.00 in0.0 mm 0.01 in0.3 mm
07:10 PM 37.4°F3.0°C 30.2°F-1.0°C 75% 8.5 mph W13.7 kmh W 8.4 mph13.5 kmh 29.18 in988.1 mb 0.00 in0.0 mm 0.00 in0.0 mm 0.01 in0.3 mm
07:20 PM 37.6°F3.1°C 30.4°F-0.9°C 75% 8.2 mph SW13.2 kmh SW 8.4 mph13.5 kmh 29.17 in987.8 mb 0.00 in0.0 mm 0.00 in0.0 mm 0.01 in0.3 mm
07:30 PM 37.6°F3.1°C 30.0°F-1.1°C 74% 8.3 mph SSW13.4 kmh SSW 10.1 mph16.3 kmh 29.16 in987.5 mb 0.00 in0.0 mm 0.00 in0.0 mm 0.01 in0.3 mm
07:40 PM 37.9°F3.3°C 30.4°F-0.9°C 74% 6.5 mph SSW10.5 kmh SSW 6.6 mph10.6 kmh 29.18 in988.1 mb 0.00 in0.0 mm 0.00 in0.0 mm 0.01 in0.3 mm
07:50 PM 38.7°F3.7°C 31.4°F-0.3°C 75% 10.3 mph S16.6 kmh S 11.8 mph19.0 kmh 29.18 in988.1 mb 0.00 in0.0 mm 0.00 in0.0 mm 0.01 in0.3 mm
08:00 PM 39.6°F4.2°C 32.3°F0.2°C 75% 11.2 mph SSW18.0 kmh SSW 11.8 mph19.0 kmh 29.17 in987.8 mb 0.00 in0.0 mm 0.00 in0.0 mm 0.01 in0.3 mm
08:10 PM 40.1°F4.5°C 32.5°F0.3°C 74% 13.0 mph SSW20.9 kmh SSW 13.3 mph21.4 kmh 29.16 in987.5 mb 0.00 in0.0 mm 0.00 in0.0 mm 0.01 in0.3 mm
08:20 PM 40.1°F4.5°C 32.5°F0.3°C 74% 10.6 mph SW17.1 kmh SW 13.3 mph21.4 kmh 29.16 in987.5 mb 0.00 in0.0 mm 0.00 in0.0 mm 0.01 in0.3 mm
08:30 PM 40.3°F4.6°C 33.0°F0.6°C 75% 12.2 mph SE19.6 kmh SE 12.5 mph20.1 kmh 29.16 in987.5 mb 0.00 in0.0 mm 0.00 in0.0 mm 0.01 in0.3 mm
08:40 PM 40.3°F4.6°C 33.0°F0.6°C 75% 11.3 mph SSE18.2 kmh SSE 10.8 mph17.4 kmh 29.14 in986.8 mb 0.00 in0.0 mm 0.00 in0.0 mm 0.01 in0.3 mm
08:50 PM 40.5°F4.7°C 33.5°F0.8°C 76% 9.6 mph SSE15.4 kmh SSE 10.8 mph17.4 kmh 29.14 in986.8 mb 0.00 in0.0 mm 0.00 in0.0 mm 0.01 in0.3 mm
09:00 PM 40.5°F4.7°C 33.8°F1.0°C 77% 9.7 mph S15.6 kmh S 10.8 mph17.4 kmh 29.13 in986.5 mb 0.00 in0.0 mm 0.00 in0.0 mm 0.01 in0.3 mm
09:10 PM 40.6°F4.8°C 34.3°F1.3°C 78% 14.6 mph SSE23.5 kmh SSE 10.8 mph17.4 kmh 29.12 in986.1 mb 0.00 in0.0 mm 0.00 in0.0 mm 0.01 in0.3 mm
09:20 PM 40.3°F4.6°C 34.3°F1.3°C 79% 10.7 mph SSE17.2 kmh SSE 10.8 mph17.4 kmh 29.12 in986.1 mb 0.01 in0.3 mm 0.06 in1.5 mm 0.02 in0.5 mm
09:30 PM 40.1°F4.5°C 34.7°F1.5°C 81% 10.7 mph SSE17.2 kmh SSE 12.5 mph20.1 kmh 29.11 in985.8 mb 0.02 in0.5 mm 0.06 in1.5 mm 0.04 in1.0 mm
09:40 PM 39.9°F4.4°C 34.9°F1.6°C 82% 9.3 mph S15.0 kmh S 9.1 mph14.6 kmh 29.09 in985.1 mb 0.04 in1.0 mm 0.12 in3.0 mm 0.05 in1.3 mm
09:50 PM 39.9°F4.4°C 35.2°F1.8°C 83% 11.8 mph S19.0 kmh S 13.3 mph21.4 kmh 29.08 in984.8 mb 0.04 in1.0 mm 0.00 in0.0 mm 0.05 in1.3 mm
10:00 PM 40.3°F4.6°C 35.8°F2.1°C 84% 17.6 mph S28.3 kmh S 19.2 mph30.9 kmh 29.08 in984.8 mb 0.04 in1.0 mm 0.00 in0.0 mm 0.05 in1.3 mm
10:10 PM 40.8°F4.9°C 36.4°F2.4°C 84% 20.3 mph S32.7 kmh S 19.2 mph30.9 kmh 29.08 in984.8 mb 0.04 in1.0 mm 0.00 in0.0 mm 0.05 in1.3 mm
10:20 PM 41.2°F5.1°C 36.7°F2.6°C 84% 20.2 mph S32.5 kmh S 20.2 mph32.5 kmh 29.07 in984.4 mb 0.02 in0.5 mm 0.00 in0.0 mm 0.05 in1.3 mm
10:30 PM 41.2°F5.1°C 36.4°F2.4°C 83% 20.7 mph SSE33.3 kmh SSE 19.2 mph30.9 kmh 29.05 in983.7 mb 0.01 in0.3 mm 0.00 in0.0 mm 0.05 in1.3 mm
10:40 PM 41.4°F5.2°C 36.6°F2.6°C 83% 19.0 mph S30.6 kmh S 19.2 mph30.9 kmh 29.04 in983.4 mb 0.00 in0.0 mm 0.00 in0.0 mm 0.05 in1.3 mm
10:50 PM 41.4°F5.2°C 36.6°F2.6°C 83% 21.1 mph S34.0 kmh S 19.2 mph30.9 kmh 29.04 in983.4 mb 0.00 in0.0 mm 0.00 in0.0 mm 0.05 in1.3 mm
11:00 PM 41.5°F5.3°C 36.8°F2.7°C 83% 21.7 mph S34.9 kmh S 20.2 mph32.5 kmh 29.02 in982.7 mb 0.00 in0.0 mm 0.00 in0.0 mm 0.05 in1.3 mm
11:10 PM 41.7°F5.4°C 36.9°F2.7°C 83% 22.2 mph SE35.7 kmh SE 18.5 mph29.8 kmh 29.01 in982.4 mb 0.00 in0.0 mm 0.00 in0.0 mm 0.05 in1.3 mm
11:20 PM 41.9°F5.5°C 37.4°F3.0°C 84% 20.5 mph S33.0 kmh S 21.7 mph34.9 kmh 29.01 in982.4 mb 0.00 in0.0 mm 0.00 in0.0 mm 0.05 in1.3 mm
11:30 PM 41.9°F5.5°C 37.4°F3.0°C 84% 19.9 mph SSE32.0 kmh SSE 19.2 mph30.9 kmh 29.01 in982.4 mb 0.00 in0.0 mm 0.00 in0.0 mm 0.05 in1.3 mm
11:40 PM 41.9°F5.5°C 37.4°F3.0°C 84% 21.7 mph SSE34.9 kmh SSE 20.9 mph33.6 kmh 29.01 in982.4 mb 0.00 in0.0 mm 0.00 in0.0 mm 0.05 in1.3 mm
11:50 PM 41.9°F5.5°C 37.4°F3.0°C 84% 18.4 mph SSE29.6 kmh SSE 19.2 mph30.9 kmh 29.01 in982.4 mb 0.00 in0.0 mm 0.00 in0.0 mm 0.05 in1.3 mm